Time;durP1;ratioP1;P1;durP2;ratioP2;P2;SDS_P1;SDS_P2;PMS_P1;PMS_P2;Temp;Humidity;BMP_temperature;BMP_pressure;BME280_temperature;BME280_humidity;BME280_pressure;Samples;Min_cycle;Max_cycle;Signal;HPM_P1;HPM_P2
2023/07/24 00:00:20;;;;;;;9.73;5.82;;;17.50;99.90;;;;;;5009174;28;20498;-78
2023/07/24 00:02:45;;;;;;;7.68;5.95;;;17.40;99.90;;;;;;5023750;28;20046;-78
2023/07/24 00:05:11;;;;;;;7.85;6.18;;;17.40;99.90;;;;;;5007528;28;20063;-78
2023/07/24 00:07:37;;;;;;;10.63;6.35;;;17.40;99.90;;;;;;4964167;28;20034;-78
2023/07/24 00:10:03;;;;;;;8.35;5.82;;;17.40;99.90;;;;;;4995569;28;20101;-78
2023/07/24 00:12:30;;;;;;;10.73;6.47;;;17.30;99.90;;;;;;4974218;28;20069;-78
2023/07/24 00:14:55;;;;;;;8.65;6.35;;;17.30;99.90;;;;;;4965982;28;20061;-78
2023/07/24 00:17:21;;;;;;;9.70;6.45;;;17.20;99.90;;;;;;4999971;28;20096;-78
2023/07/24 00:19:47;;;;;;;9.35;7.40;;;17.20;99.90;;;;;;4991860;28;20042;-78
2023/07/24 00:22:12;;;;;;;7.88;6.38;;;17.20;99.90;;;;;;4992058;28;20048;-78
2023/07/24 00:24:38;;;;;;;10.32;7.18;;;17.10;99.90;;;;;;5008433;28;20041;-78
2023/07/24 00:27:04;;;;;;;10.15;7.95;;;17.10;99.90;;;;;;5006031;28;20065;-78
2023/07/24 00:29:30;;;;;;;10.05;7.28;;;17.10;99.90;;;;;;4974110;28;20038;-78
2023/07/24 00:31:55;;;;;;;12.10;7.57;;;17.00;99.90;;;;;;5003830;28;20140;-78
2023/07/24 00:34:21;;;;;;;13.80;7.10;;;17.00;99.90;;;;;;4986949;28;20037;-78
2023/07/24 00:36:47;;;;;;;12.80;8.50;;;17.00;99.90;;;;;;5007573;28;20042;-78
2023/07/24 00:39:14;;;;;;;11.32;7.70;;;17.00;99.90;;;;;;4976694;28;20046;-78
2023/07/24 00:41:40;;;;;;;12.43;7.07;;;17.00;99.90;;;;;;5009198;28;20038;-78
2023/07/24 00:44:06;;;;;;;12.10;8.10;;;16.90;99.90;;;;;;5008641;28;20491;-78
2023/07/24 00:46:33;;;;;;;12.30;7.55;;;16.90;99.90;;;;;;5009463;28;20125;-78
2023/07/24 00:49:01;;;;;;;11.82;8.55;;;16.90;99.90;;;;;;4992664;28;20037;-78
2023/07/24 00:51:27;;;;;;;9.95;8.10;;;16.90;99.90;;;;;;5007837;28;20042;-78
2023/07/24 00:53:59;;;;;;;10.95;8.45;;;16.80;99.90;;;;;;4976682;28;20381;-78
2023/07/24 00:56:25;;;;;;;10.40;8.10;;;16.80;99.90;;;;;;4992123;28;20041;-78
2023/07/24 00:58:51;;;;;;;12.30;8.35;;;16.70;99.90;;;;;;4989565;28;20290;-78
2023/07/24 01:01:17;;;;;;;11.70;8.68;;;16.80;99.90;;;;;;5023951;28;20041;-78
2023/07/24 01:03:43;;;;;;;13.15;8.52;;;16.70;99.90;;;;;;4973363;28;20121;-78
2023/07/24 01:06:09;;;;;;;12.18;8.43;;;16.70;99.90;;;;;;5003117;28;20149;-78
2023/07/24 01:08:36;;;;;;;12.30;8.43;;;16.60;99.90;;;;;;4985166;28;20402;-78
2023/07/24 01:11:28;;;;;;;12.07;8.32;;;16.60;99.90;;;;;;5005314;28;20346;-78
2023/07/24 01:14:19;;;;;;;11.82;8.55;;;16.60;99.90;;;;;;4998360;28;20048;-78
2023/07/24 01:16:47;;;;;;;11.65;8.60;;;16.60;99.90;;;;;;4988317;28;20181;-78
2023/07/24 01:19:40;;;;;;;11.80;8.60;;;16.60;99.90;;;;;;4971862;28;20042;-78
2023/07/24 01:22:27;;;;;;;13.65;9.23;;;16.60;99.90;;;;;;4988497;28;20046;-78
2023/07/24 01:25:19;;;;;;;11.13;8.18;;;16.50;99.90;;;;;;4986339;28;20034;-78
2023/07/24 01:27:46;;;;;;;11.73;8.45;;;16.50;99.90;;;;;;5020180;28;20045;-79
2023/07/24 01:30:12;;;;;;;11.38;8.20;;;16.50;99.90;;;;;;5002822;28;20054;-78
2023/07/24 01:32:39;;;;;;;12.00;8.02;;;16.40;99.90;;;;;;4987383;28;20129;-79
2023/07/24 01:35:05;;;;;;;10.90;7.03;;;16.40;99.90;;;;;;4987279;28;20110;-79
2023/07/24 01:37:33;;;;;;;10.32;7.50;;;16.40;99.90;;;;;;4988744;28;20518;-79
2023/07/24 01:39:59;;;;;;;10.73;7.82;;;16.40;99.90;;;;;;5004347;28;20034;-79
2023/07/24 01:42:26;;;;;;;11.57;7.63;;;16.30;99.90;;;;;;4988759;28;20049;-78
2023/07/24 01:44:55;;;;;;;11.48;7.75;;;16.30;99.90;;;;;;4987912;28;20037;-79
2023/07/24 01:47:21;;;;;;;10.57;7.72;;;16.30;99.90;;;;;;5003786;28;20710;-78
2023/07/24 01:49:48;;;;;;;11.35;7.72;;;16.30;99.90;;;;;;5022737;28;20069;-78
2023/07/24 01:52:13;;;;;;;10.68;7.43;;;16.30;99.90;;;;;;5009720;28;20026;-78
2023/07/24 01:54:39;;;;;;;11.20;7.53;;;16.30;99.90;;;;;;4959342;28;20049;-79
2023/07/24 01:57:05;;;;;;;12.90;7.80;;;16.30;99.90;;;;;;5009223;28;20046;-79
2023/07/24 01:59:31;;;;;;;15.98;8.05;;;16.20;99.90;;;;;;5005828;28;20050;-79
2023/07/24 02:01:56;;;;;;;9.43;7.30;;;16.20;99.90;;;;;;5006572;28;20046;-78
2023/07/24 02:04:22;;;;;;;9.38;7.07;;;16.20;99.90;;;;;;5009059;28;20124;-78
2023/07/24 02:06:49;;;;;;;13.23;7.80;;;16.20;99.90;;;;;;5007242;28;20033;-79
2023/07/24 02:09:15;;;;;;;11.77;7.40;;;16.20;99.90;;;;;;5005281;28;20034;-78
2023/07/24 02:11:41;;;;;;;10.90;6.78;;;16.20;99.90;;;;;;4975843;28;20042;-78
2023/07/24 02:14:07;;;;;;;11.60;7.13;;;16.20;99.90;;;;;;4988688;28;20041;-78
2023/07/24 02:16:32;;;;;;;14.40;8.07;;;16.30;99.90;;;;;;4959522;28;20037;-78
2023/07/24 02:18:58;;;;;;;11.20;7.63;;;16.30;99.90;;;;;;4975941;28;20523;-78
2023/07/24 02:21:24;;;;;;;10.50;7.00;;;16.30;99.90;;;;;;4975707;28;20515;-78
2023/07/24 02:23:49;;;;;;;10.02;7.07;;;16.30;99.90;;;;;;4973434;28;20037;-78
2023/07/24 02:26:15;;;;;;;11.80;7.43;;;16.30;99.90;;;;;;5005469;28;20042;-78
2023/07/24 02:28:41;;;;;;;14.90;6.82;;;16.30;99.90;;;;;;4989760;28;20045;-78
2023/07/24 02:31:06;;;;;;;9.77;6.53;;;16.30;99.90;;;;;;4974186;28;20547;-78
2023/07/24 02:33:32;;;;;;;9.18;7.25;;;16.20;99.90;;;;;;5006001;28;20444;-78
2023/07/24 02:35:58;;;;;;;11.80;7.68;;;16.20;99.90;;;;;;5007050;28;20057;-78
2023/07/24 02:38:23;;;;;;;9.98;7.13;;;16.20;99.90;;;;;;4975402;28;20542;-78
2023/07/24 02:40:49;;;;;;;11.63;7.35;;;16.20;99.90;;;;;;4990570;28;20527;-78
2023/07/24 02:43:15;;;;;;;11.35;7.18;;;16.10;99.90;;;;;;4990695;28;20045;-78
2023/07/24 02:45:40;;;;;;;10.75;7.57;;;16.10;99.90;;;;;;4990391;28;20038;-78
2023/07/24 02:48:06;;;;;;;14.70;7.70;;;16.10;99.90;;;;;;4972877;28;20038;-78
2023/07/24 02:50:33;;;;;;;9.27;6.90;;;16.10;99.90;;;;;;4987770;28;20041;-78
2023/07/24 02:52:59;;;;;;;11.02;7.47;;;16.10;99.90;;;;;;4974663;28;20044;-78
2023/07/24 02:55:25;;;;;;;10.45;6.95;;;16.10;99.90;;;;;;5005554;28;20049;-78
2023/07/24 02:57:51;;;;;;;9.20;6.93;;;16.00;99.90;;;;;;5002488;28;20042;-78
2023/07/24 03:00:17;;;;;;;12.10;7.60;;;16.10;99.90;;;;;;4987764;28;20063;-78
2023/07/24 03:02:43;;;;;;;16.10;7.80;;;16.00;99.90;;;;;;4990518;28;20557;-78
2023/07/24 03:05:08;;;;;;;11.82;7.82;;;16.00;99.90;;;;;;4987149;28;20040;-78
2023/07/24 03:07:34;;;;;;;11.23;7.35;;;16.00;99.90;;;;;;4990939;28;20074;-78
2023/07/24 03:10:00;;;;;;;16.52;7.22;;;16.00;99.90;;;;;;5007631;28;20471;-78
2023/07/24 03:12:26;;;;;;;10.25;6.53;;;16.10;99.90;;;;;;4958620;28;20099;-78
2023/07/24 03:14:51;;;;;;;10.73;6.78;;;16.10;99.90;;;;;;5007698;28;20037;-78
2023/07/24 03:17:17;;;;;;;11.38;6.85;;;16.10;99.90;;;;;;4990110;28;20501;-78
2023/07/24 03:19:43;;;;;;;12.65;7.03;;;16.10;99.90;;;;;;4991345;28;20041;-78
2023/07/24 03:22:08;;;;;;;11.90;6.68;;;16.10;99.90;;;;;;4990219;28;20041;-78
2023/07/24 03:24:36;;;;;;;9.57;6.88;;;16.10;99.90;;;;;;4988072;28;20077;-78
2023/07/24 03:27:02;;;;;;;11.25;6.57;;;16.10;99.90;;;;;;4989731;28;20092;-78
2023/07/24 03:29:28;;;;;;;10.35;6.50;;;16.10;99.90;;;;;;4989781;28;20053;-78
2023/07/24 03:31:53;;;;;;;9.60;6.70;;;16.20;99.90;;;;;;4988515;28;20049;-78
2023/07/24 03:34:19;;;;;;;10.18;6.68;;;16.20;99.90;;;;;;4990695;28;20076;-78
2023/07/24 03:36:45;;;;;;;9.88;6.68;;;16.20;99.90;;;;;;4959114;28;20069;-78
2023/07/24 03:39:11;;;;;;;9.05;6.97;;;16.20;99.90;;;;;;4987059;28;20046;-78
2023/07/24 03:41:37;;;;;;;10.45;7.07;;;16.30;99.90;;;;;;4987220;28;21373;-78
2023/07/24 03:44:03;;;;;;;9.65;6.78;;;16.30;99.90;;;;;;5005353;28;20061;-78
2023/07/24 03:46:29;;;;;;;10.95;6.57;;;16.30;99.90;;;;;;4988993;28;20183;-78
2023/07/24 03:48:55;;;;;;;10.07;6.82;;;16.30;99.90;;;;;;4973884;28;20034;-78
2023/07/24 03:51:20;;;;;;;10.68;7.75;;;16.30;99.90;;;;;;4987680;28;20037;-78
2023/07/24 03:53:46;;;;;;;10.20;6.60;;;16.30;99.90;;;;;;4987494;28;20038;-78
2023/07/24 03:56:12;;;;;;;11.57;7.10;;;16.30;99.90;;;;;;5005971;28;20522;-78
2023/07/24 03:58:41;;;;;;;9.25;6.35;;;16.30;99.90;;;;;;4987269;28;20463;-78
2023/07/24 04:01:10;;;;;;;9.40;7.25;;;16.40;99.90;;;;;;4985656;28;20498;-78
2023/07/24 04:03:35;;;;;;;9.15;6.45;;;16.40;99.90;;;;;;4972619;28;20053;-78
2023/07/24 04:06:02;;;;;;;15.10;7.30;;;16.30;99.90;;;;;;4973411;28;20042;-78
2023/07/24 04:08:27;;;;;;;11.25;6.90;;;16.30;99.90;;;;;;4984228;28;20046;-79
2023/07/24 04:10:53;;;;;;;9.00;6.72;;;16.40;99.90;;;;;;5005395;28;20056;-78
2023/07/24 04:13:19;;;;;;;9.80;7.25;;;16.40;99.90;;;;;;5003329;28;20090;-78
2023/07/24 04:15:44;;;;;;;10.32;6.90;;;16.30;99.90;;;;;;4987338;28;20073;-79
2023/07/24 04:18:10;;;;;;;10.30;7.05;;;16.30;99.90;;;;;;4973832;28;20030;-78
2023/07/24 04:20:37;;;;;;;10.30;7.07;;;16.40;99.90;;;;;;5003908;28;20629;-78
2023/07/24 04:23:02;;;;;;;9.45;7.57;;;16.40;99.90;;;;;;5005357;28;20077;-78
2023/07/24 04:25:28;;;;;;;11.25;8.15;;;16.40;99.90;;;;;;4986133;28;20072;-78
2023/07/24 04:27:54;;;;;;;11.55;7.57;;;16.40;99.90;;;;;;4989038;28;20038;-78
2023/07/24 04:30:20;;;;;;;12.63;8.85;;;16.40;99.90;;;;;;5003480;28;20037;-79
2023/07/24 04:32:46;;;;;;;10.95;8.20;;;16.40;99.90;;;;;;4936303;28;20512;-79
2023/07/24 04:35:11;;;;;;;14.00;8.73;;;16.40;99.90;;;;;;4936477;28;20066;-79
2023/07/24 04:37:37;;;;;;;11.77;7.85;;;16.40;99.90;;;;;;4937050;28;20066;-78
2023/07/24 04:40:03;;;;;;;12.63;9.07;;;16.30;99.90;;;;;;4948178;28;20050;-78
2023/07/24 04:42:29;;;;;;;13.70;9.10;;;16.40;99.90;;;;;;4968733;28;20062;-78
2023/07/24 04:44:55;;;;;;;13.25;9.07;;;16.40;99.90;;;;;;4950970;28;20045;-78
2023/07/24 04:47:20;;;;;;;12.80;9.13;;;16.30;99.90;;;;;;4949515;28;20042;-78
2023/07/24 04:49:46;;;;;;;12.43;9.43;;;16.40;99.90;;;;;;4951250;28;20034;-78
2023/07/24 04:52:12;;;;;;;13.18;9.52;;;16.40;99.90;;;;;;4967876;28;20035;-78
2023/07/24 04:54:37;;;;;;;13.02;9.75;;;16.40;99.90;;;;;;4968505;28;20041;-78
2023/07/24 04:57:03;;;;;;;12.85;9.70;;;16.40;99.90;;;;;;4952925;28;20097;-79
2023/07/24 04:59:29;;;;;;;11.90;8.90;;;16.40;99.90;;;;;;4950563;28;20042;-79
2023/07/24 05:01:55;;;;;;;14.85;8.88;;;16.40;99.90;;;;;;4954025;28;20045;-78
2023/07/24 05:04:21;;;;;;;12.48;9.63;;;16.40;99.90;;;;;;4952161;28;20446;-79
2023/07/24 05:06:47;;;;;;;14.32;9.20;;;16.30;99.90;;;;;;4952587;28;20049;-79
2023/07/24 05:09:12;;;;;;;11.32;8.63;;;16.40;99.90;;;;;;4966543;28;20545;-79
2023/07/24 05:11:39;;;;;;;11.45;8.73;;;16.30;99.90;;;;;;4968690;28;20130;-79
2023/07/24 05:14:04;;;;;;;11.95;9.13;;;16.30;99.90;;;;;;4968561;28;20507;-78
2023/07/24 05:16:31;;;;;;;14.85;9.90;;;16.30;99.90;;;;;;4934803;28;20039;-79
2023/07/24 05:18:56;;;;;;;13.27;9.05;;;16.30;99.90;;;;;;4950672;28;20122;-78
2023/07/24 05:21:22;;;;;;;12.10;8.88;;;16.30;99.90;;;;;;4952298;28;20635;-78
2023/07/24 05:23:48;;;;;;;15.30;9.70;;;16.30;99.90;;;;;;4951597;28;20031;-78
2023/07/24 05:26:13;;;;;;;14.43;9.48;;;16.30;99.90;;;;;;4972567;28;20129;-78
2023/07/24 05:28:39;;;;;;;14.35;9.68;;;16.30;99.90;;;;;;4972470;28;20466;-78
2023/07/24 05:31:06;;;;;;;12.25;8.77;;;16.20;99.90;;;;;;4959437;28;20132;-78
2023/07/24 05:33:32;;;;;;;15.25;9.32;;;16.30;99.90;;;;;;4961060;28;20061;-78
2023/07/24 05:35:59;;;;;;;15.35;9.93;;;16.30;99.90;;;;;;4983244;28;20037;-79
2023/07/24 05:38:25;;;;;;;13.05;8.93;;;16.30;99.90;;;;;;4978911;28;20039;-78
2023/07/24 05:40:58;;;;;;;12.77;9.50;;;16.30;99.90;;;;;;4973675;28;20073;-78
2023/07/24 05:43:24;;;;;;;13.85;9.52;;;16.30;99.90;;;;;;4975730;28;20058;-78
2023/07/24 05:45:54;;;;;;;12.70;8.88;;;16.30;99.90;;;;;;4975957;28;20080;-77
2023/07/24 05:48:20;;;;;;;14.10;9.35;;;16.40;99.90;;;;;;4961577;28;20045;-78
2023/07/24 05:50:46;;;;;;;12.55;9.57;;;16.40;99.90;;;;;;4961974;28;20034;-78
2023/07/24 05:53:11;;;;;;;13.23;9.23;;;16.50;99.90;;;;;;4964196;28;20125;-78
2023/07/24 05:55:37;;;;;;;14.90;9.65;;;16.50;99.90;;;;;;4966534;28;20044;-78
2023/07/24 05:58:03;;;;;;;15.60;10.10;;;16.50;99.90;;;;;;4957685;28;20089;-79
2023/07/24 06:00:28;;;;;;;13.95;9.73;;;16.60;99.90;;;;;;4980128;28;20048;-78
2023/07/24 06:02:54;;;;;;;12.95;9.95;;;16.60;99.90;;;;;;4991874;28;20042;-78
2023/07/24 06:05:20;;;;;;;10.73;8.40;;;16.70;99.90;;;;;;4962221;28;20034;-79
2023/07/24 06:07:46;;;;;;;14.13;9.80;;;16.70;99.90;;;;;;4956641;28;20121;-78
2023/07/24 06:10:12;;;;;;;14.38;9.30;;;16.80;99.90;;;;;;4964256;28;20034;-78
2023/07/24 06:12:38;;;;;;;13.02;9.85;;;16.80;99.90;;;;;;4972412;28;20038;-79
2023/07/24 06:15:04;;;;;;;11.45;8.93;;;16.80;99.90;;;;;;4955833;28;20070;-78
2023/07/24 06:17:30;;;;;;;12.52;9.38;;;16.90;99.90;;;;;;4971297;28;20104;-78
2023/07/24 06:19:56;;;;;;;13.25;10.27;;;16.90;99.90;;;;;;4973458;28;20133;-78
2023/07/24 06:22:22;;;;;;;11.85;9.68;;;16.90;99.90;;;;;;4960205;28;20040;-78
2023/07/24 06:24:48;;;;;;;16.70;9.95;;;16.90;99.90;;;;;;4974435;28;20070;-78
2023/07/24 06:27:14;;;;;;;12.98;9.75;;;16.90;99.90;;;;;;4953847;28;20050;-79
2023/07/24 06:29:40;;;;;;;13.32;8.63;;;16.90;99.90;;;;;;4970004;28;20041;-78
2023/07/24 06:32:06;;;;;;;12.38;9.15;;;16.90;99.90;;;;;;4962512;28;20080;-79
2023/07/24 06:34:32;;;;;;;15.57;9.27;;;16.90;99.90;;;;;;4957408;28;20125;-79
2023/07/24 06:36:57;;;;;;;13.00;8.98;;;17.00;99.90;;;;;;4952377;28;20038;-79
2023/07/24 06:39:24;;;;;;;12.48;9.75;;;17.00;99.90;;;;;;4934524;28;20077;-79
2023/07/24 06:41:52;;;;;;;12.95;9.43;;;17.10;99.90;;;;;;4974202;28;20049;-79
2023/07/24 06:44:18;;;;;;;13.75;9.48;;;17.20;99.90;;;;;;4975549;28;20069;-79
2023/07/24 06:46:43;;;;;;;11.75;8.88;;;17.30;99.90;;;;;;4946332;28;20112;-78
2023/07/24 06:49:10;;;;;;;13.02;9.77;;;17.40;99.90;;;;;;4973200;28;20124;-80
2023/07/24 06:51:37;;;;;;;11.43;8.85;;;17.50;99.90;;;;;;4958540;28;20034;-77
2023/07/24 06:54:02;;;;;;;12.70;8.60;;;17.60;99.90;;;;;;4959482;28;20034;-77
2023/07/24 06:56:28;;;;;;;12.38;9.00;;;17.80;99.90;;;;;;4989600;28;20040;-77
2023/07/24 06:58:54;;;;;;;13.80;8.85;;;17.90;99.90;;;;;;4959023;28;20043;-77
2023/07/24 07:01:20;;;;;;;11.93;9.30;;;18.00;99.90;;;;;;4976333;28;20093;-77
2023/07/24 07:03:45;;;;;;;10.48;7.95;;;18.10;99.90;;;;;;4970456;28;20050;-76
2023/07/24 07:06:12;;;;;;;15.35;9.88;;;18.30;99.90;;;;;;4976031;28;20125;-76
2023/07/24 07:08:38;;;;;;;10.48;8.52;;;18.40;99.90;;;;;;4964558;28;20155;-76
2023/07/24 07:11:03;;;;;;;11.80;8.77;;;18.40;99.90;;;;;;4940927;28;20479;-76
2023/07/24 07:13:29;;;;;;;11.95;8.80;;;18.30;99.90;;;;;;4966579;28;20092;-77
2023/07/24 07:15:55;;;;;;;11.32;8.75;;;18.30;99.90;;;;;;4984153;28;20097;-77
2023/07/24 07:18:20;;;;;;;13.55;8.80;;;18.30;99.90;;;;;;4964370;28;20070;-78
2023/07/24 07:20:47;;;;;;;11.40;8.18;;;18.40;99.90;;;;;;4991727;28;20064;-77
2023/07/24 07:23:13;;;;;;;15.68;8.70;;;18.50;99.90;;;;;;4952950;28;20043;-77
2023/07/24 07:25:39;;;;;;;11.90;7.68;;;18.50;99.90;;;;;;4941167;28;20043;-77
2023/07/24 07:28:05;;;;;;;13.75;8.82;;;18.60;99.90;;;;;;4945408;28;20455;-77
2023/07/24 07:30:31;;;;;;;12.80;8.10;;;18.60;99.90;;;;;;4991407;28;20034;-77
2023/07/24 07:32:57;;;;;;;13.07;7.88;;;18.50;99.90;;;;;;4986001;28;20050;-77
2023/07/24 07:35:22;;;;;;;12.63;7.80;;;18.50;99.90;;;;;;4976226;28;20046;-77
2023/07/24 07:37:48;;;;;;;12.13;8.05;;;18.40;99.90;;;;;;4979848;28;20042;-77
2023/07/24 07:40:14;;;;;;;13.80;9.02;;;18.30;99.90;;;;;;4965033;28;20041;-77
2023/07/24 07:42:39;;;;;;;12.57;7.88;;;18.40;99.90;;;;;;5013351;28;20134;-77
2023/07/24 07:45:05;;;;;;;14.27;8.65;;;18.50;99.90;;;;;;4986768;28;20580;-77
2023/07/24 07:47:31;;;;;;;14.70;8.55;;;18.60;99.90;;;;;;4981913;28;20048;-78
2023/07/24 07:49:57;;;;;;;11.00;7.50;;;18.80;99.90;;;;;;4985198;28;20061;-78
2023/07/24 07:52:23;;;;;;;10.60;7.15;;;19.10;99.90;;;;;;5013383;28;20034;-78
2023/07/24 07:54:49;;;;;;;13.48;7.82;;;19.30;99.90;;;;;;5010735;28;20042;-77
2023/07/24 07:57:15;;;;;;;12.55;7.80;;;19.30;99.90;;;;;;4994581;28;20049;-77
2023/07/24 07:59:41;;;;;;;11.80;7.68;;;19.40;99.90;;;;;;5025633;28;20034;-78
2023/07/24 08:02:07;;;;;;;10.65;7.35;;;19.60;99.90;;;;;;5025849;28;20076;-77
2023/07/24 08:04:33;;;;;;;13.35;7.95;;;19.80;99.90;;;;;;5004404;28;20499;-77
2023/07/24 08:06:59;;;;;;;13.23;8.10;;;19.90;99.90;;;;;;5009730;28;20053;-78
2023/07/24 08:09:25;;;;;;;9.45;7.65;;;19.90;99.90;;;;;;4997972;28;20607;-78
2023/07/24 08:11:51;;;;;;;13.02;8.00;;;20.00;99.90;;;;;;4991372;28;20487;-78
2023/07/24 08:14:17;;;;;;;9.85;7.40;;;20.10;99.90;;;;;;4997569;28;20121;-77
2023/07/24 08:16:43;;;;;;;12.15;7.80;;;20.30;99.90;;;;;;5006964;28;20076;-77
2023/07/24 08:19:09;;;;;;;10.82;7.40;;;20.10;99.90;;;;;;4993779;28;20077;-77
2023/07/24 08:21:35;;;;;;;11.80;8.23;;;20.00;99.90;;;;;;5010020;28;20557;-78
2023/07/24 08:24:02;;;;;;;9.10;6.97;;;20.00;99.90;;;;;;5002008;28;20035;-77
2023/07/24 08:26:28;;;;;;;14.75;8.52;;;20.10;99.90;;;;;;4974371;28;20038;-77
2023/07/24 08:28:53;;;;;;;10.15;7.90;;;20.20;99.90;;;;;;4996829;28;20053;-77
2023/07/24 08:31:19;;;;;;;12.13;7.53;;;20.30;99.90;;;;;;4992327;28;20065;-78
2023/07/24 08:33:45;;;;;;;13.15;8.02;;;20.40;99.90;;;;;;4990841;28;20057;-77
2023/07/24 08:36:13;;;;;;;9.40;7.50;;;20.30;99.90;;;;;;5003482;28;20495;-78
2023/07/24 08:38:40;;;;;;;9.05;6.97;;;20.30;99.90;;;;;;5011397;28;20038;-78
2023/07/24 08:41:12;;;;;;;12.27;7.03;;;20.30;99.90;;;;;;5006450;28;20038;-77
2023/07/24 08:43:39;;;;;;;12.88;6.95;;;20.30;99.90;;;;;;4979001;28;20063;-78
2023/07/24 08:46:06;;;;;;;13.02;7.65;;;20.30;99.90;;;;;;4993228;28;20045;-77
2023/07/24 08:48:42;;;;;;;11.95;7.03;;;20.40;99.90;;;;;;5024016;28;20052;-78
2023/07/24 08:51:10;;;;;;;10.23;7.18;;;20.40;99.90;;;;;;4992942;28;20074;-78
2023/07/24 08:53:38;;;;;;;10.18;7.03;;;20.40;99.90;;;;;;4989595;28;20038;-77
2023/07/24 08:56:08;;;;;;;8.30;6.38;;;20.40;99.90;;;;;;4973798;28;20506;-77
2023/07/24 08:58:34;;;;;;;11.00;6.97;;;20.30;99.90;;;;;;4973202;28;20044;-78
2023/07/24 09:01:01;;;;;;;12.60;7.65;;;20.10;99.90;;;;;;5022218;28;20404;-78
2023/07/24 09:03:28;;;;;;;9.95;6.85;;;20.10;99.90;;;;;;4978670;28;20049;-77
2023/07/24 09:05:54;;;;;;;10.77;7.25;;;20.10;99.90;;;;;;5007308;28;20053;-78
2023/07/24 09:08:33;;;;;;;10.20;6.07;;;20.10;99.90;;;;;;5009202;28;20041;-78
2023/07/24 09:11:00;;;;;;;10.73;6.90;;;20.10;99.90;;;;;;5020932;28;20038;-77
2023/07/24 09:13:27;;;;;;;10.27;8.02;;;20.00;99.90;;;;;;4973198;28;20121;-77
2023/07/24 09:15:53;;;;;;;11.32;6.82;;;20.10;99.90;;;;;;5005733;28;20049;-77
2023/07/24 09:18:19;;;;;;;9.65;6.32;;;20.40;99.90;;;;;;5009221;28;20050;-78
2023/07/24 09:20:45;;;;;;;10.10;6.05;;;20.80;99.90;;;;;;4981294;28;20037;-78
2023/07/24 09:23:12;;;;;;;8.75;5.60;;;20.80;99.90;;;;;;4976829;28;20060;-78
2023/07/24 09:25:40;;;;;;;10.05;5.93;;;20.90;99.90;;;;;;4970816;28;20103;-78
2023/07/24 09:28:16;;;;;;;9.98;6.05;;;21.10;99.90;;;;;;5008764;28;20038;-78
2023/07/24 09:30:55;;;;;;;10.13;6.43;;;21.30;99.90;;;;;;4991873;28;20034;-78
2023/07/24 09:33:23;;;;;;;9.55;6.78;;;21.50;99.90;;;;;;5008678;28;20128;-79
2023/07/24 09:36:02;;;;;;;11.10;6.43;;;21.60;99.90;;;;;;5003535;28;20049;-78
2023/07/24 09:38:27;;;;;;;10.10;6.32;;;21.70;99.90;;;;;;5008953;28;20486;-78
2023/07/24 09:40:55;;;;;;;8.85;5.70;;;21.50;99.90;;;;;;4992616;28;20049;-78
2023/07/24 09:43:26;;;;;;;10.10;6.28;;;21.70;99.90;;;;;;5009188;28;20064;-78
2023/07/24 09:45:53;;;;;;;10.90;6.82;;;21.90;99.90;;;;;;4997325;28;20057;-78
2023/07/24 09:48:21;;;;;;;11.23;6.85;;;21.90;99.90;;;;;;5005585;28;20150;-78
2023/07/24 09:50:53;;;;;;;9.85;6.18;;;22.00;99.90;;;;;;5016717;28;20038;-78
2023/07/24 09:53:19;;;;;;;8.82;6.07;;;21.80;99.90;;;;;;4989235;28;20483;-78
2023/07/24 09:55:52;;;;;;;9.65;6.30;;;21.70;99.90;;;;;;4998233;28;20049;-79
2023/07/24 09:58:20;;;;;;;7.50;5.85;;;21.70;99.90;;;;;;5008519;28;20411;-78
2023/07/24 10:00:47;;;;;;;9.93;6.45;;;21.90;99.90;;;;;;5002889;28;20049;-77
2023/07/24 10:03:15;;;;;;;8.60;5.90;;;21.90;99.90;;;;;;4976238;28;20129;-78
2023/07/24 10:05:42;;;;;;;10.40;6.00;;;22.00;99.90;;;;;;4980751;28;20042;-79
2023/07/24 10:08:09;;;;;;;11.50;6.50;;;22.00;99.90;;;;;;4992635;28;20049;-78
2023/07/24 10:10:35;;;;;;;8.60;5.93;;;21.80;99.90;;;;;;5006378;28;20399;-78
2023/07/24 10:13:01;;;;;;;11.60;6.75;;;21.50;99.90;;;;;;4963353;28;20123;-78
2023/07/24 10:15:28;;;;;;;10.15;6.18;;;21.40;99.90;;;;;;4994500;28;20048;-78
2023/07/24 10:18:02;;;;;;;7.55;5.43;;;21.50;99.90;;;;;;4963582;28;20038;-79
2023/07/24 10:20:38;;;;;;;10.10;4.90;;;21.90;99.90;;;;;;4980887;28;20131;-78
2023/07/24 10:23:05;;;;;;;9.25;6.00;;;22.10;99.90;;;;;;5012408;28;20045;-78
2023/07/24 10:25:33;;;;;;;6.30;4.75;;;22.10;99.90;;;;;;4979594;28;20125;-79
2023/07/24 10:28:10;;;;;;;10.02;5.50;;;22.10;99.90;;;;;;4991348;28;20719;-78
2023/07/24 10:30:37;;;;;;;8.93;6.13;;;22.40;99.90;;;;;;5009862;28;20045;-77
2023/07/24 10:33:08;;;;;;;9.25;5.53;;;22.60;99.90;;;;;;4991806;28;20133;-78
2023/07/24 10:35:42;;;;;;;10.40;6.60;;;22.70;99.90;;;;;;4992940;28;20057;-78
2023/07/24 10:38:09;;;;;;;7.88;5.90;;;22.90;99.90;;;;;;4976097;28;20038;-78
2023/07/24 10:40:35;;;;;;;8.98;5.70;;;22.80;99.90;;;;;;4979623;28;20045;-79
2023/07/24 10:43:06;;;;;;;9.55;5.72;;;22.70;99.90;;;;;;5011769;28;20044;-79
2023/07/24 10:45:58;;;;;;;8.18;5.20;;;22.60;99.90;;;;;;4995020;28;20047;-78
2023/07/24 10:48:25;;;;;;;7.95;5.20;;;22.50;99.90;;;;;;4992830;28;20062;-77
2023/07/24 10:50:52;;;;;;;7.22;5.22;;;22.40;99.90;;;;;;5024445;28;20049;-78
2023/07/24 10:53:19;;;;;;;9.18;5.35;;;22.50;99.90;;;;;;4975862;28;20050;-78
2023/07/24 10:55:50;;;;;;;7.25;5.60;;;22.40;99.90;;;;;;4995352;28;20426;-79
2023/07/24 10:58:16;;;;;;;7.90;6.25;;;22.10;99.90;;;;;;4995099;28;20041;-79
2023/07/24 11:00:43;;;;;;;8.20;5.63;;;22.10;99.90;;;;;;5005386;28;20563;-78
2023/07/24 11:03:13;;;;;;;8.45;4.93;;;22.30;99.90;;;;;;5000212;28;20105;-78
2023/07/24 11:05:43;;;;;;;8.20;5.25;;;22.50;99.90;;;;;;4993715;28;20053;-78
2023/07/24 11:08:18;;;;;;;8.90;5.40;;;22.80;99.90;;;;;;5011315;28;20042;-78
2023/07/24 11:10:49;;;;;;;7.07;4.65;;;23.10;99.90;;;;;;5009211;28;20129;-79
2023/07/24 11:13:20;;;;;;;6.70;4.60;;;23.40;99.90;;;;;;4993791;28;20096;-79
2023/07/24 11:15:46;;;;;;;6.90;5.03;;;23.70;99.90;;;;;;4994898;28;20223;-79
2023/07/24 11:18:13;;;;;;;9.68;5.80;;;23.80;99.90;;;;;;5011470;28;20380;-79
2023/07/24 11:20:45;;;;;;;7.35;4.80;;;23.80;99.90;;;;;;5010397;28;20040;-79
2023/07/24 11:23:11;;;;;;;7.35;5.00;;;23.70;99.90;;;;;;5009463;28;20033;-79
2023/07/24 11:25:38;;;;;;;6.45;4.78;;;23.50;99.90;;;;;;5011284;28;20060;-79
2023/07/24 11:28:09;;;;;;;7.22;4.40;;;23.20;99.90;;;;;;4978870;28;20037;-79
2023/07/24 11:30:35;;;;;;;6.75;4.80;;;23.10;99.90;;;;;;4994313;28;20034;-79
2023/07/24 11:33:04;;;;;;;7.07;4.32;;;23.00;99.90;;;;;;5007350;28;20526;-78
2023/07/24 11:35:30;;;;;;;8.60;4.97;;;23.00;99.90;;;;;;4977509;28;20046;-79
2023/07/24 11:37:56;;;;;;;9.98;5.18;;;22.90;99.90;;;;;;5010529;28;20426;-79
2023/07/24 11:40:34;;;;;;;7.68;4.00;;;22.80;99.90;;;;;;5027044;28;20056;-79
2023/07/24 11:43:00;;;;;;;9.48;5.18;;;22.80;99.90;;;;;;5012501;28;20525;-79
2023/07/24 11:45:26;;;;;;;5.57;4.10;;;22.60;99.90;;;;;;4993577;28;20085;-79
2023/07/24 11:47:56;;;;;;;4.78;3.80;;;22.50;99.90;;;;;;5006804;28;20053;-79
2023/07/24 11:50:23;;;;;;;8.30;4.55;;;22.60;99.90;;;;;;4978808;28;20435;-79
2023/07/24 11:52:50;;;;;;;9.57;4.70;;;22.50;99.90;;;;;;5010424;28;20041;-79
2023/07/24 11:55:30;;;;;;;7.63;4.57;;;22.40;99.90;;;;;;4993714;28;20659;-79
2023/07/24 11:58:01;;;;;;;7.63;5.28;;;22.30;99.90;;;;;;5001969;28;20415;-79
2023/07/24 12:00:27;;;;;;;6.47;4.82;;;22.30;99.90;;;;;;5009620;28;20104;-79
2023/07/24 12:02:59;;;;;;;7.10;4.43;;;22.30;99.90;;;;;;5010354;28;20046;-79
2023/07/24 12:05:25;;;;;;;7.00;4.32;;;22.40;99.90;;;;;;5008177;28;20582;-78
2023/07/24 12:07:54;;;;;;;6.95;4.55;;;22.30;99.90;;;;;;5014913;28;20535;-78
2023/07/24 12:10:27;;;;;;;7.55;4.25;;;22.30;99.90;;;;;;4994236;28;20080;-78
2023/07/24 12:12:54;;;;;;;6.88;4.55;;;22.20;99.90;;;;;;4990303;28;20084;-78
2023/07/24 12:15:19;;;;;;;9.85;5.32;;;22.20;99.90;;;;;;5003166;28;20446;-78
2023/07/24 12:17:45;;;;;;;10.07;5.45;;;22.20;99.90;;;;;;5023142;28;20054;-78
2023/07/24 12:20:11;;;;;;;6.60;4.72;;;22.20;99.90;;;;;;4990398;28;20047;-78
2023/07/24 12:22:38;;;;;;;5.32;4.40;;;22.30;99.90;;;;;;4985078;28;20077;-81
2023/07/24 12:25:04;;;;;;;7.93;4.45;;;22.30;99.90;;;;;;5009799;28;20042;-78
2023/07/24 12:27:31;;;;;;;9.05;4.93;;;22.40;99.90;;;;;;5002837;28;20057;-77
2023/07/24 12:29:57;;;;;;;6.35;5.10;;;22.30;99.90;;;;;;5007373;28;20072;-77
2023/07/24 12:32:23;;;;;;;7.25;4.88;;;22.30;99.90;;;;;;4994172;28;20518;-77
2023/07/24 12:34:50;;;;;;;10.35;5.07;;;22.30;99.90;;;;;;4993089;28;20557;-77
2023/07/24 12:37:17;;;;;;;8.27;5.15;;;22.30;99.90;;;;;;4998365;28;20116;-77
2023/07/24 12:39:44;;;;;;;7.53;4.80;;;22.40;99.90;;;;;;5009749;28;20041;-77